sensor_id;sensor_type;location;lat;lon;timestamp;pressure;altitude;pressure_sealevel;temperature;humidity
41246;BME280;53880;47.526;18.986;2023-04-26T00:00:22;99031.13;;;20.39;51.47
41246;BME280;53880;47.526;18.986;2023-04-26T00:03:01;99031.13;;;20.39;51.69
41246;BME280;53880;47.526;18.986;2023-04-26T00:05:20;99041.84;;;20.39;51.57
41246;BME280;53880;47.526;18.986;2023-04-26T00:07:36;99047.19;;;20.39;51.55
41246;BME280;53880;47.526;18.986;2023-04-26T00:09:56;99044.53;;;20.39;51.71
41246;BME280;53880;47.526;18.986;2023-04-26T00:12:13;99035.66;;;20.39;51.47
41246;BME280;53880;47.526;18.986;2023-04-26T00:14:33;99040.16;;;20.38;51.78
41246;BME280;53880;47.526;18.986;2023-04-26T00:16:51;99038.31;;;20.39;51.62
41246;BME280;53880;47.526;18.986;2023-04-26T00:19:11;99041.19;;;20.37;51.54
41246;BME280;53880;47.526;18.986;2023-04-26T00:21:32;99046.53;;;20.37;51.92
41246;BME280;53880;47.526;18.986;2023-04-26T00:23:50;99044.03;;;20.36;52.00
41246;BME280;53880;47.526;18.986;2023-04-26T00:26:08;99049.22;;;20.37;51.87
41246;BME280;53880;47.526;18.986;2023-04-26T00:28:29;99049.22;;;20.37;51.90
41246;BME280;53880;47.526;18.986;2023-04-26T00:30:47;99059.09;;;20.37;51.59
41246;BME280;53880;47.526;18.986;2023-04-26T00:33:05;99060.06;;;20.36;51.87
41246;BME280;53880;47.526;18.986;2023-04-26T00:35:21;99074.47;;;20.35;52.31
41246;BME280;53880;47.526;18.986;2023-04-26T00:37:38;99077.16;;;20.35;52.26
41246;BME280;53880;47.526;18.986;2023-04-26T00:39:53;99075.31;;;20.35;52.01
41246;BME280;53880;47.526;18.986;2023-04-26T00:42:11;99073.63;;;20.34;52.18
41246;BME280;53880;47.526;18.986;2023-04-26T00:44:26;99079.00;;;20.34;52.03
41246;BME280;53880;47.526;18.986;2023-04-26T00:46:42;99084.34;;;20.34;52.28
41246;BME280;53880;47.526;18.986;2023-04-26T00:49:04;99081.66;;;20.34;52.24
41246;BME280;53880;47.526;18.986;2023-04-26T00:51:22;99088.84;;;20.34;52.33
41246;BME280;53880;47.526;18.986;2023-04-26T00:53:41;99089.69;;;20.34;51.99
41246;BME280;53880;47.526;18.986;2023-04-26T00:56:05;99088.03;;;20.33;52.17
41246;BME280;53880;47.526;18.986;2023-04-26T00:58:28;99084.34;;;20.34;52.26
41246;BME280;53880;47.526;18.986;2023-04-26T01:00:43;99084.53;;;20.33;51.73
41246;BME280;53880;47.526;18.986;2023-04-26T01:03:04;99093.41;;;20.33;52.15
41246;BME280;53880;47.526;18.986;2023-04-26T01:05:19;99081.84;;;20.33;52.40
41246;BME280;53880;47.526;18.986;2023-04-26T01:07:37;99083.69;;;20.32;52.37
41246;BME280;53880;47.526;18.986;2023-04-26T01:10:00;99088.84;;;20.34;52.16
41246;BME280;53880;47.526;18.986;2023-04-26T01:12:20;99098.75;;;20.33;51.99
41246;BME280;53880;47.526;18.986;2023-04-26T01:14:41;99095.03;;;20.34;52.47
41246;BME280;53880;47.526;18.986;2023-04-26T01:17:01;99097.91;;;20.33;52.03
41246;BME280;53880;47.526;18.986;2023-04-26T01:19:17;99094.38;;;20.32;52.08
41246;BME280;53880;47.526;18.986;2023-04-26T01:21:34;99098.91;;;20.32;52.61
41246;BME280;53880;47.526;18.986;2023-04-26T01:23:50;99101.56;;;20.32;52.40
41246;BME280;53880;47.526;18.986;2023-04-26T01:26:08;99102.59;;;20.31;52.03
41246;BME280;53880;47.526;18.986;2023-04-26T01:28:28;99107.13;;;20.30;52.26
41246;BME280;53880;47.526;18.986;2023-04-26T01:30:48;99105.28;;;20.31;52.44
41246;BME280;53880;47.526;18.986;2023-04-26T01:33:06;99115.97;;;20.31;52.52
41246;BME280;53880;47.526;18.986;2023-04-26T01:35:23;99115.13;;;20.30;52.80
41246;BME280;53880;47.526;18.986;2023-04-26T01:37:38;99120.50;;;20.30;52.50
41246;BME280;53880;47.526;18.986;2023-04-26T01:39:54;99124.16;;;20.29;52.32
41246;BME280;53880;47.526;18.986;2023-04-26T01:42:13;99126.69;;;20.31;52.80
41246;BME280;53880;47.526;18.986;2023-04-26T01:44:30;99124.16;;;20.29;52.23
41246;BME280;53880;47.526;18.986;2023-04-26T01:46:51;99129.50;;;20.29;52.69
41246;BME280;53880;47.526;18.986;2023-04-26T01:49:09;99127.88;;;20.28;52.41
41246;BME280;53880;47.526;18.986;2023-04-26T01:51:30;99126.03;;;20.29;52.86
41246;BME280;53880;47.526;18.986;2023-04-26T01:53:47;99138.56;;;20.28;51.99
41246;BME280;53880;47.526;18.986;2023-04-26T01:56:05;99128.69;;;20.29;52.28
41246;BME280;53880;47.526;18.986;2023-04-26T01:58:23;99140.22;;;20.29;52.42
41246;BME280;53880;47.526;18.986;2023-04-26T02:00:40;99132.38;;;20.28;52.14
41246;BME280;53880;47.526;18.986;2023-04-26T02:02:58;99137.91;;;20.26;52.46
41246;BME280;53880;47.526;18.986;2023-04-26T02:05:12;99144.91;;;20.27;52.66
41246;BME280;53880;47.526;18.986;2023-04-26T02:07:30;99145.94;;;20.26;52.29
41246;BME280;53880;47.526;18.986;2023-04-26T02:09:47;99145.94;;;20.26;52.12
41246;BME280;53880;47.526;18.986;2023-04-26T02:12:07;99138.09;;;20.25;52.91
41246;BME280;53880;47.526;18.986;2023-04-26T02:14:24;99147.78;;;20.26;52.32
41246;BME280;53880;47.526;18.986;2023-04-26T02:16:41;99146.94;;;20.25;52.33
41246;BME280;53880;47.526;18.986;2023-04-26T02:19:03;99149.59;;;20.25;52.58
41246;BME280;53880;47.526;18.986;2023-04-26T02:21:24;99142.59;;;20.24;52.28
41246;BME280;53880;47.526;18.986;2023-04-26T02:23:40;99139.94;;;20.24;52.39
41246;BME280;53880;47.526;18.986;2023-04-26T02:25:57;99142.94;;;20.21;52.12
41246;BME280;53880;47.526;18.986;2023-04-26T02:28:15;99146.28;;;20.23;52.12
41246;BME280;53880;47.526;18.986;2023-04-26T02:30:30;99146.47;;;20.22;52.46
41246;BME280;53880;47.526;18.986;2023-04-26T02:32:48;99154.66;;;20.20;52.26
41246;BME280;53880;47.526;18.986;2023-04-26T02:35:13;99152.97;;;20.19;52.22
41246;BME280;53880;47.526;18.986;2023-04-26T02:37:32;99156.47;;;20.20;52.73
41246;BME280;53880;47.526;18.986;2023-04-26T02:39:53;99167.16;;;20.20;52.55
41246;BME280;53880;47.526;18.986;2023-04-26T02:42:12;99163.66;;;20.19;52.61
41246;BME280;53880;47.526;18.986;2023-04-26T02:44:30;99165.38;;;20.20;52.41
41246;BME280;53880;47.526;18.986;2023-04-26T02:46:47;99167.16;;;20.20;52.84
41246;BME280;53880;47.526;18.986;2023-04-26T02:49:05;99162.69;;;20.20;52.61
41246;BME280;53880;47.526;18.986;2023-04-26T02:51:20;99162.81;;;20.19;52.88
41246;BME280;53880;47.526;18.986;2023-04-26T02:53:41;99164.69;;;20.18;52.27
41246;BME280;53880;47.526;18.986;2023-04-26T02:55:58;99164.69;;;20.18;52.72
41246;BME280;53880;47.526;18.986;2023-04-26T02:58:19;99167.34;;;20.18;52.48
41246;BME280;53880;47.526;18.986;2023-04-26T03:00:44;99170.03;;;20.18;52.46
41246;BME280;53880;47.526;18.986;2023-04-26T03:03:00;99163.00;;;20.17;52.63
41246;BME280;53880;47.526;18.986;2023-04-26T03:05:15;99161.16;;;20.18;52.32
41246;BME280;53880;47.526;18.986;2023-04-26T03:07:35;99160.31;;;20.17;52.28
41246;BME280;53880;47.526;18.986;2023-04-26T03:09:55;99163.19;;;20.16;52.66
41246;BME280;53880;47.526;18.986;2023-04-26T03:12:19;99164.03;;;20.16;52.95
41246;BME280;53880;47.526;18.986;2023-04-26T03:14:34;99168.53;;;20.16;52.58
41246;BME280;53880;47.526;18.986;2023-04-26T03:16:50;99172.06;;;20.16;52.57
41246;BME280;53880;47.526;18.986;2023-04-26T03:19:05;99182.75;;;20.16;52.76
41246;BME280;53880;47.526;18.986;2023-04-26T03:21:23;99184.59;;;20.16;52.91
41246;BME280;53880;47.526;18.986;2023-04-26T03:23:38;99187.41;;;20.14;52.80
41246;BME280;53880;47.526;18.986;2023-04-26T03:25:55;99193.44;;;20.16;52.54
41246;BME280;53880;47.526;18.986;2023-04-26T03:28:15;99190.94;;;20.15;52.91
41246;BME280;53880;47.526;18.986;2023-04-26T03:30:33;99204.28;;;20.15;52.72
41246;BME280;53880;47.526;18.986;2023-04-26T03:32:48;99199.97;;;20.14;53.24
41246;BME280;53880;47.526;18.986;2023-04-26T03:35:06;99211.47;;;20.14;52.41
41246;BME280;53880;47.526;18.986;2023-04-26T03:37:21;99213.34;;;20.14;52.15
41246;BME280;53880;47.526;18.986;2023-04-26T03:39:46;99215.19;;;20.13;52.19
41246;BME280;53880;47.526;18.986;2023-04-26T03:42:02;99212.50;;;20.13;52.87
41246;BME280;53880;47.526;18.986;2023-04-26T03:44:23;99220.53;;;20.13;52.83
41246;BME280;53880;47.526;18.986;2023-04-26T03:46:38;99224.19;;;20.12;52.33
41246;BME280;53880;47.526;18.986;2023-04-26T03:48:54;99224.19;;;20.12;53.34
41246;BME280;53880;47.526;18.986;2023-04-26T03:51:09;99218.84;;;20.12;53.20
41246;BME280;53880;47.526;18.986;2023-04-26T03:53:24;99224.19;;;20.12;53.27
41246;BME280;53880;47.526;18.986;2023-04-26T03:55:47;99225.22;;;20.11;52.33
41246;BME280;53880;47.526;18.986;2023-04-26T03:58:07;99232.41;;;20.11;52.52
41246;BME280;53880;47.526;18.986;2023-04-26T04:00:22;99230.75;;;20.10;52.76
41246;BME280;53880;47.526;18.986;2023-04-26T04:02:41;99239.59;;;20.10;52.97
41246;BME280;53880;47.526;18.986;2023-04-26T04:04:57;99243.09;;;20.11;53.10
41246;BME280;53880;47.526;18.986;2023-04-26T04:07:17;99242.25;;;20.10;52.93
41246;BME280;53880;47.526;18.986;2023-04-26T04:09:35;99239.59;;;20.10;52.96
41246;BME280;53880;47.526;18.986;2023-04-26T04:11:51;99246.78;;;20.10;52.63
41246;BME280;53880;47.526;18.986;2023-04-26T04:14:06;99239.75;;;20.09;52.70
41246;BME280;53880;47.526;18.986;2023-04-26T04:16:22;99232.59;;;20.09;52.27
41246;BME280;53880;47.526;18.986;2023-04-26T04:18:39;99240.59;;;20.09;52.74
41246;BME280;53880;47.526;18.986;2023-04-26T04:20:57;99243.28;;;20.09;52.61
41246;BME280;53880;47.526;18.986;2023-04-26T04:23:14;99245.97;;;20.09;52.56
41246;BME280;53880;47.526;18.986;2023-04-26T04:25:35;99257.50;;;20.10;52.69
41246;BME280;53880;47.526;18.986;2023-04-26T04:27:54;99254.97;;;20.08;52.88
41246;BME280;53880;47.526;18.986;2023-04-26T04:30:12;99263.84;;;20.09;52.56
41246;BME280;53880;47.526;18.986;2023-04-26T04:32:29;99263.66;;;20.10;52.23
41246;BME280;53880;47.526;18.986;2023-04-26T04:34:46;99270.03;;;20.09;52.33
41246;BME280;53880;47.526;18.986;2023-04-26T04:37:02;99271.00;;;20.08;52.41
41246;BME280;53880;47.526;18.986;2023-04-26T04:39:18;99271.84;;;20.09;52.52
41246;BME280;53880;47.526;18.986;2023-04-26T04:41:34;99276.38;;;20.08;52.41
41246;BME280;53880;47.526;18.986;2023-04-26T04:43:49;99280.06;;;20.07;52.60
41246;BME280;53880;47.526;18.986;2023-04-26T04:46:10;99279.88;;;20.09;52.28
41246;BME280;53880;47.526;18.986;2023-04-26T04:48:28;99287.06;;;20.08;52.52
41246;BME280;53880;47.526;18.986;2023-04-26T04:50:48;99285.56;;;20.06;52.58
41246;BME280;53880;47.526;18.986;2023-04-26T04:53:10;99296.09;;;20.07;52.87
41246;BME280;53880;47.526;18.986;2023-04-26T04:55:27;99304.94;;;20.08;52.15
41246;BME280;53880;47.526;18.986;2023-04-26T04:57:51;99303.09;;;20.08;52.16
41246;BME280;53880;47.526;18.986;2023-04-26T05:00:09;99303.09;;;20.08;52.17
41246;BME280;53880;47.526;18.986;2023-04-26T05:02:32;99301.28;;;20.09;52.41
41246;BME280;53880;47.526;18.986;2023-04-26T05:04:56;99308.31;;;20.10;52.42
41246;BME280;53880;47.526;18.986;2023-04-26T05:07:11;99308.78;;;20.13;52.67
41246;BME280;53880;47.526;18.986;2023-04-26T05:09:30;99311.94;;;20.17;52.86
41246;BME280;53880;47.526;18.986;2023-04-26T05:11:45;99307.78;;;20.22;52.59
41246;BME280;53880;47.526;18.986;2023-04-26T05:14:03;99311.41;;;20.29;52.79
41246;BME280;53880;47.526;18.986;2023-04-26T05:16:20;99320.22;;;20.38;52.72
41246;BME280;53880;47.526;18.986;2023-04-26T05:18:40;99324.38;;;20.48;52.93
41246;BME280;53880;47.526;18.986;2023-04-26T05:21:00;99330.16;;;20.60;52.69
41246;BME280;53880;47.526;18.986;2023-04-26T05:23:18;99320.09;;;20.70;52.48
41246;BME280;53880;47.526;18.986;2023-04-26T05:25:36;99320.88;;;20.79;52.10
41246;BME280;53880;47.526;18.986;2023-04-26T05:28:11;99327.47;;;20.91;51.91
41246;BME280;53880;47.526;18.986;2023-04-26T05:30:47;99329.94;;;21.00;51.76
41246;BME280;53880;47.526;18.986;2023-04-26T05:33:15;99323.53;;;21.09;51.27
41246;BME280;53880;47.526;18.986;2023-04-26T05:35:36;99328.00;;;21.17;51.03
41246;BME280;53880;47.526;18.986;2023-04-26T05:37:52;99321.56;;;21.26;50.97
41246;BME280;53880;47.526;18.986;2023-04-26T05:40:12;99326.00;;;21.34;50.79
41246;BME280;53880;47.526;18.986;2023-04-26T05:42:28;99329.66;;;21.41;50.62
41246;BME280;53880;47.526;18.986;2023-04-26T05:44:47;99320.03;;;21.46;50.46
41246;BME280;53880;47.526;18.986;2023-04-26T05:47:05;99324.03;;;21.50;50.65
41246;BME280;53880;47.526;18.986;2023-04-26T05:49:23;99318.97;;;21.55;50.62
41246;BME280;53880;47.526;18.986;2023-04-26T05:51:43;99325.81;;;21.58;50.45
41246;BME280;53880;47.526;18.986;2023-04-26T05:54:10;99330.81;;;21.61;50.52
41246;BME280;53880;47.526;18.986;2023-04-26T05:56:28;99316.56;;;21.60;50.43
41246;BME280;53880;47.526;18.986;2023-04-26T05:58:43;99323.59;;;21.61;50.54
41246;BME280;53880;47.526;18.986;2023-04-26T06:01:01;99327.94;;;21.62;50.43
41246;BME280;53880;47.526;18.986;2023-04-26T06:03:18;99323.44;;;21.63;50.32
41246;BME280;53880;47.526;18.986;2023-04-26T06:05:36;99332.28;;;21.63;50.08
41246;BME280;53880;47.526;18.986;2023-04-26T06:07:57;99325.25;;;21.62;49.98
41246;BME280;53880;47.526;18.986;2023-04-26T06:10:16;99329.59;;;21.63;50.23
41246;BME280;53880;47.526;18.986;2023-04-26T06:12:34;99331.47;;;21.63;50.13
41246;BME280;53880;47.526;18.986;2023-04-26T06:14:53;99329.59;;;21.63;50.04
41246;BME280;53880;47.526;18.986;2023-04-26T06:17:14;99345.69;;;21.63;50.37
41246;BME280;53880;47.526;18.986;2023-04-26T06:19:29;99351.88;;;21.64;50.22
41246;BME280;53880;47.526;18.986;2023-04-26T06:21:44;99344.88;;;21.63;50.16
41246;BME280;53880;47.526;18.986;2023-04-26T06:24:00;99354.75;;;21.62;50.25
41246;BME280;53880;47.526;18.986;2023-04-26T06:26:19;99350.38;;;21.61;50.21
41246;BME280;53880;47.526;18.986;2023-04-26T06:28:37;99355.75;;;21.61;50.29
41246;BME280;53880;47.526;18.986;2023-04-26T06:30:57;99346.91;;;21.61;50.34
41246;BME280;53880;47.526;18.986;2023-04-26T06:33:14;99342.34;;;21.61;50.17
41246;BME280;53880;47.526;18.986;2023-04-26T06:35:41;99346.06;;;21.60;50.47
41246;BME280;53880;47.526;18.986;2023-04-26T06:38:00;99353.25;;;21.60;50.65
41246;BME280;53880;47.526;18.986;2023-04-26T06:40:17;99353.44;;;21.58;50.38
41246;BME280;53880;47.526;18.986;2023-04-26T06:42:35;99364.97;;;21.59;50.27
41246;BME280;53880;47.526;18.986;2023-04-26T06:45:12;99358.97;;;21.57;50.26
41246;BME280;53880;47.526;18.986;2023-04-26T06:47:30;99351.97;;;21.56;50.30
41246;BME280;53880;47.526;18.986;2023-04-26T06:49:48;99344.75;;;21.56;50.04
41246;BME280;53880;47.526;18.986;2023-04-26T06:52:03;99357.31;;;21.56;50.21
41246;BME280;53880;47.526;18.986;2023-04-26T06:54:21;99354.66;;;21.56;50.03
41246;BME280;53880;47.526;18.986;2023-04-26T06:56:38;99352.16;;;21.54;50.02
41246;BME280;53880;47.526;18.986;2023-04-26T06:59:05;99370.22;;;21.52;49.91
41246;BME280;53880;47.526;18.986;2023-04-26T07:01:25;99355.19;;;21.51;49.82
41246;BME280;53880;47.526;18.986;2023-04-26T07:03:45;99353.50;;;21.50;49.80
41246;BME280;53880;47.526;18.986;2023-04-26T07:06:08;99357.22;;;21.49;49.81
41246;BME280;53880;47.526;18.986;2023-04-26T07:08:26;99358.22;;;21.48;49.95
41246;BME280;53880;47.526;18.986;2023-04-26T07:10:50;99367.94;;;21.49;50.05
41246;BME280;53880;47.526;18.986;2023-04-26T07:13:10;99365.44;;;21.48;50.05
41246;BME280;53880;47.526;18.986;2023-04-26T07:15:28;99355.53;;;21.48;50.04
41246;BME280;53880;47.526;18.986;2023-04-26T07:17:45;99369.78;;;21.49;49.91
41246;BME280;53880;47.526;18.986;2023-04-26T07:20:08;99358.22;;;21.48;49.82
41246;BME280;53880;47.526;18.986;2023-04-26T07:22:23;99369.78;;;21.49;49.82
41246;BME280;53880;47.526;18.986;2023-04-26T07:24:41;99365.44;;;21.48;49.79
41246;BME280;53880;47.526;18.986;2023-04-26T07:26:59;99368.13;;;21.48;49.69
41246;BME280;53880;47.526;18.986;2023-04-26T07:29:15;99369.13;;;21.47;49.67
41246;BME280;53880;47.526;18.986;2023-04-26T07:31:32;99369.13;;;21.47;49.73
41246;BME280;53880;47.526;18.986;2023-04-26T07:33:50;99384.34;;;21.46;49.65
41246;BME280;53880;47.526;18.986;2023-04-26T07:36:11;99385.19;;;21.47;49.72
41246;BME280;53880;47.526;18.986;2023-04-26T07:38:27;99381.69;;;21.46;49.84
41246;BME280;53880;47.526;18.986;2023-04-26T07:40:54;99391.41;;;21.47;49.98
41246;BME280;53880;47.526;18.986;2023-04-26T07:43:14;99393.25;;;21.47;49.71
41246;BME280;53880;47.526;18.986;2023-04-26T07:45:31;99409.13;;;21.48;49.75
41246;BME280;53880;47.526;18.986;2023-04-26T07:47:48;99391.41;;;21.47;49.69
41246;BME280;53880;47.526;18.986;2023-04-26T07:50:04;99402.78;;;21.49;50.11
41246;BME280;53880;47.526;18.986;2023-04-26T07:52:20;99396.22;;;21.52;49.93
41246;BME280;53880;47.526;18.986;2023-04-26T07:54:34;99404.72;;;21.55;51.08
41246;BME280;53880;47.526;18.986;2023-04-26T07:56:55;99418.97;;;21.56;50.01
41246;BME280;53880;47.526;18.986;2023-04-26T07:59:10;99402.69;;;21.57;49.79
41246;BME280;53880;47.526;18.986;2023-04-26T08:01:25;99406.41;;;21.56;48.18
41246;BME280;53880;47.526;18.986;2023-04-26T08:03:41;99407.22;;;21.57;47.58
41246;BME280;53880;47.526;18.986;2023-04-26T08:05:56;99405.56;;;21.56;47.62
41246;BME280;53880;47.526;18.986;2023-04-26T08:08:13;99407.59;;;21.54;47.69
41246;BME280;53880;47.526;18.986;2023-04-26T08:10:28;99420.50;;;21.50;47.44
41246;BME280;53880;47.526;18.986;2023-04-26T08:12:48;99417.81;;;21.50;46.89
41246;BME280;53880;47.526;18.986;2023-04-26T08:15:04;99425.06;;;21.50;46.79
41246;BME280;53880;47.526;18.986;2023-04-26T08:17:22;99424.03;;;21.51;47.24
41246;BME280;53880;47.526;18.986;2023-04-26T08:19:42;99432.72;;;21.53;47.21
41246;BME280;53880;47.526;18.986;2023-04-26T08:21:57;99427.00;;;21.56;47.21
41246;BME280;53880;47.526;18.986;2023-04-26T08:24:15;99433.03;;;21.58;47.23
41246;BME280;53880;47.526;18.986;2023-04-26T08:26:32;99430.81;;;21.61;46.62
41246;BME280;53880;47.526;18.986;2023-04-26T08:28:52;99431.47;;;21.63;46.04
41246;BME280;53880;47.526;18.986;2023-04-26T08:31:06;99441.84;;;21.66;46.18
41246;BME280;53880;47.526;18.986;2023-04-26T08:33:24;99435.41;;;21.75;45.89
41246;BME280;53880;47.526;18.986;2023-04-26T08:35:41;99427.47;;;21.82;45.77
41246;BME280;53880;47.526;18.986;2023-04-26T08:37:57;99448.22;;;21.88;45.71
41246;BME280;53880;47.526;18.986;2023-04-26T08:40:21;99438.63;;;21.93;45.80
41246;BME280;53880;47.526;18.986;2023-04-26T08:42:41;99448.81;;;21.98;46.03
41246;BME280;53880;47.526;18.986;2023-04-26T08:45:02;99428.84;;;22.00;45.92
41246;BME280;53880;47.526;18.986;2023-04-26T08:47:37;99443.75;;;22.03;46.17
41246;BME280;53880;47.526;18.986;2023-04-26T08:49:57;99444.56;;;22.04;46.21
41246;BME280;53880;47.526;18.986;2023-04-26T08:52:20;99443.53;;;22.05;45.82
41246;BME280;53880;47.526;18.986;2023-04-26T08:54:48;99448.25;;;22.02;45.75
41246;BME280;53880;47.526;18.986;2023-04-26T08:57:06;99441.25;;;22.02;46.27
41246;BME280;53880;47.526;18.986;2023-04-26T08:59:22;99444.38;;;22.05;46.32
41246;BME280;53880;47.526;18.986;2023-04-26T09:01:42;99449.41;;;22.08;45.17
41246;BME280;53880;47.526;18.986;2023-04-26T09:04:05;99447.38;;;22.10;44.18
41246;BME280;53880;47.526;18.986;2023-04-26T09:06:24;99447.38;;;22.10;44.04
41246;BME280;53880;47.526;18.986;2023-04-26T09:08:42;99448.19;;;22.11;43.35
41246;BME280;53880;47.526;18.986;2023-04-26T09:10:58;99451.06;;;22.09;43.67
41246;BME280;53880;47.526;18.986;2023-04-26T09:13:13;99445.03;;;22.07;43.82
41246;BME280;53880;47.526;18.986;2023-04-26T09:15:31;99443.38;;;22.06;43.44
41246;BME280;53880;47.526;18.986;2023-04-26T09:17:48;99443.94;;;22.02;43.14
41246;BME280;53880;47.526;18.986;2023-04-26T09:20:25;99429.69;;;22.01;43.07
41246;BME280;53880;47.526;18.986;2023-04-26T09:22:49;99444.94;;;22.00;42.56
41246;BME280;53880;47.526;18.986;2023-04-26T09:25:08;99441.59;;;21.98;42.66
41246;BME280;53880;47.526;18.986;2023-04-26T09:27:36;99441.28;;;21.93;42.00
41246;BME280;53880;47.526;18.986;2023-04-26T09:32:24;99460.66;;;21.81;41.75
41246;BME280;53880;47.526;18.986;2023-04-26T09:34:44;99453.63;;;21.80;42.00
41246;BME280;53880;47.526;18.986;2023-04-26T09:37:00;99463.16;;;21.82;42.52
41246;BME280;53880;47.526;18.986;2023-04-26T09:39:37;99441.72;;;21.82;41.61
41246;BME280;53880;47.526;18.986;2023-04-26T09:41:54;99452.44;;;21.82;42.06
41246;BME280;53880;47.526;18.986;2023-04-26T09:44:24;99446.25;;;21.82;41.41
41246;BME280;53880;47.526;18.986;2023-04-26T09:46:39;99442.72;;;21.81;41.64
41246;BME280;53880;47.526;18.986;2023-04-26T09:49:01;99447.44;;;21.79;41.50
41246;BME280;53880;47.526;18.986;2023-04-26T09:51:21;99451.13;;;21.78;41.67
41246;BME280;53880;47.526;18.986;2023-04-26T09:53:45;99442.06;;;21.79;41.90
41246;BME280;53880;47.526;18.986;2023-04-26T09:56:12;99448.44;;;21.78;41.90
41246;BME280;53880;47.526;18.986;2023-04-26T09:58:31;99443.25;;;21.77;42.07
41246;BME280;53880;47.526;18.986;2023-04-26T10:00:51;99460.53;;;21.74;42.21
41246;BME280;53880;47.526;18.986;2023-04-26T10:03:12;99455.16;;;21.74;42.07
41246;BME280;53880;47.526;18.986;2023-04-26T10:05:33;99440.13;;;21.73;41.91
41246;BME280;53880;47.526;18.986;2023-04-26T10:07:51;99438.63;;;21.71;41.99
41246;BME280;53880;47.526;18.986;2023-04-26T10:10:12;99442.03;;;21.65;41.85
41246;BME280;53880;47.526;18.986;2023-04-26T10:12:29;99441.38;;;21.63;41.76
41246;BME280;53880;47.526;18.986;2023-04-26T10:14:47;99444.41;;;21.60;41.97
41246;BME280;53880;47.526;18.986;2023-04-26T10:17:05;99449.44;;;21.55;42.05
41246;BME280;53880;47.526;18.986;2023-04-26T10:19:27;99430.53;;;21.56;42.08
41246;BME280;53880;47.526;18.986;2023-04-26T10:21:45;99458.81;;;21.59;41.78
41246;BME280;53880;47.526;18.986;2023-04-26T10:24:04;99444.88;;;21.63;42.10
41246;BME280;53880;47.526;18.986;2023-04-26T10:29:02;99451.66;;;21.74;41.90
41246;BME280;53880;47.526;18.986;2023-04-26T10:31:20;99443.91;;;21.79;41.21
41246;BME280;53880;47.526;18.986;2023-04-26T10:33:37;99445.91;;;21.85;40.96
41246;BME280;53880;47.526;18.986;2023-04-26T10:36:11;99447.88;;;21.91;40.76
41246;BME280;53880;47.526;18.986;2023-04-26T10:38:30;99430.22;;;21.96;40.58
41246;BME280;53880;47.526;18.986;2023-04-26T10:40:49;99442.91;;;22.02;40.77
41246;BME280;53880;47.526;18.986;2023-04-26T10:45:30;99441.81;;;22.12;40.14
41246;BME280;53880;47.526;18.986;2023-04-26T10:47:47;99444.13;;;22.15;39.97
41246;BME280;53880;47.526;18.986;2023-04-26T10:50:08;99442.75;;;22.19;39.49
41246;BME280;53880;47.526;18.986;2023-04-26T10:52:24;99444.41;;;22.20;39.71
41246;BME280;53880;47.526;18.986;2023-04-26T10:57:05;99452.09;;;22.23;40.12
41246;BME280;53880;47.526;18.986;2023-04-26T10:59:25;99463.69;;;22.23;39.96
41246;BME280;53880;47.526;18.986;2023-04-26T11:01:45;99467.34;;;22.22;40.34
41246;BME280;53880;47.526;18.986;2023-04-26T11:04:11;99454.97;;;22.21;40.21
41246;BME280;53880;47.526;18.986;2023-04-26T11:11:55;99448.81;;;22.13;40.40
41246;BME280;53880;47.526;18.986;2023-04-26T11:14:13;99436.00;;;22.08;40.93
41246;BME280;53880;47.526;18.986;2023-04-26T11:16:30;99444.56;;;22.04;41.44
41246;BME280;53880;47.526;18.986;2023-04-26T11:18:49;99451.13;;;22.01;41.98
41246;BME280;53880;47.526;18.986;2023-04-26T11:21:11;99458.69;;;21.97;42.13
41246;BME280;53880;47.526;18.986;2023-04-26T11:23:30;99454.53;;;21.95;42.19
41246;BME280;53880;47.526;18.986;2023-04-26T11:25:51;99455.72;;;21.92;42.47
41246;BME280;53880;47.526;18.986;2023-04-26T11:28:06;99447.38;;;21.87;42.54
41246;BME280;53880;47.526;18.986;2023-04-26T11:30:23;99441.84;;;21.89;41.19
41246;BME280;53880;47.526;18.986;2023-04-26T11:32:44;99449.88;;;21.89;41.08
41246;BME280;53880;47.526;18.986;2023-04-26T11:35:00;99450.25;;;21.86;40.72
41246;BME280;53880;47.526;18.986;2023-04-26T11:37:20;99473.56;;;21.85;40.84
41246;BME280;53880;47.526;18.986;2023-04-26T11:39:38;99452.28;;;21.84;40.78
41246;BME280;53880;47.526;18.986;2023-04-26T11:42:06;99459.34;;;21.77;41.14
41246;BME280;53880;47.526;18.986;2023-04-26T11:44:21;99457.50;;;21.77;41.43
41246;BME280;53880;47.526;18.986;2023-04-26T11:46:38;99454.97;;;21.84;42.09
41246;BME280;53880;47.526;18.986;2023-04-26T11:48:54;99462.00;;;21.85;42.38
41246;BME280;53880;47.526;18.986;2023-04-26T11:51:10;99461.00;;;21.86;42.65
41246;BME280;53880;47.526;18.986;2023-04-26T11:53:38;99449.06;;;21.88;43.33
41246;BME280;53880;47.526;18.986;2023-04-26T11:55:59;99453.41;;;21.89;43.07
41246;BME280;53880;47.526;18.986;2023-04-26T11:58:16;99464.97;;;21.90;42.79
41246;BME280;53880;47.526;18.986;2023-04-26T12:00:34;99448.22;;;21.88;43.33
41246;BME280;53880;47.526;18.986;2023-04-26T12:02:49;99460.34;;;21.84;43.59
41246;BME280;53880;47.526;18.986;2023-04-26T12:05:07;99458.34;;;21.78;43.73
41246;BME280;53880;47.526;18.986;2023-04-26T12:07:25;99456.19;;;21.73;43.65
41246;BME280;53880;47.526;18.986;2023-04-26T12:09:46;99460.91;;;21.71;43.68
41246;BME280;53880;47.526;18.986;2023-04-26T12:12:13;99457.56;;;21.69;43.55
41246;BME280;53880;47.526;18.986;2023-04-26T12:14:35;99462.44;;;21.66;43.71
41246;BME280;53880;47.526;18.986;2023-04-26T12:16:52;99455.59;;;21.63;43.87
41246;BME280;53880;47.526;18.986;2023-04-26T12:19:10;99464.00;;;21.60;44.20
41246;BME280;53880;47.526;18.986;2023-04-26T12:21:38;99470.56;;;21.58;44.07